sensor_id;sensor_type;location;lat;lon;timestamp;pressure;altitude;pressure_sealevel;temperature;humidity
54556;BME280;57291;37.520;15.106;2022-08-19T00:01:42;100671.44;;;27.82;72.03
54556;BME280;57291;37.520;15.106;2022-08-19T00:04:12;100675.50;;;27.77;73.87
54556;BME280;57291;37.520;15.106;2022-08-19T00:06:42;100674.28;;;27.75;76.35
54556;BME280;57291;37.520;15.106;2022-08-19T00:09:13;100673.94;;;27.69;78.36
54556;BME280;57291;37.520;15.106;2022-08-19T00:11:42;100672.00;;;27.63;78.81
54556;BME280;57291;37.520;15.106;2022-08-19T00:14:12;100655.31;;;27.55;79.99
54556;BME280;57291;37.520;15.106;2022-08-19T00:16:41;100658.97;;;27.49;80.39
54556;BME280;57291;37.520;15.106;2022-08-19T00:19:10;100663.81;;;27.45;80.83
54556;BME280;57291;37.520;15.106;2022-08-19T00:21:37;100662.63;;;27.42;81.10
54556;BME280;57291;37.520;15.106;2022-08-19T00:24:08;100670.63;;;27.36;81.61
54556;BME280;57291;37.520;15.106;2022-08-19T00:26:36;100669.81;;;27.40;82.21
54556;BME280;57291;37.520;15.106;2022-08-19T00:29:06;100659.03;;;27.42;82.78
54556;BME280;57291;37.520;15.106;2022-08-19T00:31:33;100664.59;;;27.45;83.60
54556;BME280;57291;37.520;15.106;2022-08-19T00:34:01;100657.78;;;27.46;84.53
54556;BME280;57291;37.520;15.106;2022-08-19T00:36:30;100668.56;;;27.48;84.81
54556;BME280;57291;37.520;15.106;2022-08-19T00:38:58;100654.59;;;27.48;84.94
54556;BME280;57291;37.520;15.106;2022-08-19T00:41:26;100642.22;;;27.49;84.78
54556;BME280;57291;37.520;15.106;2022-08-19T00:44:16;100637.03;;;27.47;85.22
54556;BME280;57291;37.520;15.106;2022-08-19T00:46:46;100632.28;;;27.44;86.36
54556;BME280;57291;37.520;15.106;2022-08-19T00:52:03;100632.78;;;27.35;85.53
54556;BME280;57291;37.520;15.106;2022-08-19T00:54:31;100622.47;;;27.29;85.25
54556;BME280;57291;37.520;15.106;2022-08-19T00:57:01;100625.38;;;27.18;83.19
54556;BME280;57291;37.520;15.106;2022-08-19T00:59:33;100634.16;;;27.13;83.18
54556;BME280;57291;37.520;15.106;2022-08-19T01:02:23;100625.00;;;27.09;83.05
54556;BME280;57291;37.520;15.106;2022-08-19T01:04:50;100624.63;;;27.07;82.93
54556;BME280;57291;37.520;15.106;2022-08-19T01:07:17;100620.22;;;27.09;82.78
54556;BME280;57291;37.520;15.106;2022-08-19T01:09:46;100610.28;;;27.08;82.38
54556;BME280;57291;37.520;15.106;2022-08-19T01:12:14;100616.25;;;27.07;82.14
54556;BME280;57291;37.520;15.106;2022-08-19T01:14:43;100619.47;;;27.05;82.10
54556;BME280;57291;37.520;15.106;2022-08-19T01:17:12;100621.06;;;27.03;82.58
54556;BME280;57291;37.520;15.106;2022-08-19T01:19:41;100631.41;;;27.06;82.85
54556;BME280;57291;37.520;15.106;2022-08-19T01:24:59;100615.03;;;27.11;82.83
54556;BME280;57291;37.520;15.106;2022-08-19T01:27:26;100609.47;;;27.15;83.06
54556;BME280;57291;37.520;15.106;2022-08-19T01:30:17;100605.38;;;27.23;82.63
54556;BME280;57291;37.520;15.106;2022-08-19T01:32:46;100600.16;;;27.29;82.33
54556;BME280;57291;37.520;15.106;2022-08-19T01:35:13;100598.16;;;27.29;81.78
54556;BME280;57291;37.520;15.106;2022-08-19T01:37:52;100596.94;;;27.30;81.87
54556;BME280;57291;37.520;15.106;2022-08-19T01:40:22;100602.13;;;27.32;81.51
54556;BME280;57291;37.520;15.106;2022-08-19T01:42:51;100609.31;;;27.29;81.67
54556;BME280;57291;37.520;15.106;2022-08-19T01:45:21;100615.34;;;27.24;81.42
54556;BME280;57291;37.520;15.106;2022-08-19T01:47:49;100605.00;;;27.25;81.11
54556;BME280;57291;37.520;15.106;2022-08-19T01:50:30;100596.59;;;27.28;79.39
54556;BME280;57291;37.520;15.106;2022-08-19T01:52:58;100593.75;;;27.32;79.54
54556;BME280;57291;37.520;15.106;2022-08-19T01:55:32;100593.34;;;27.33;80.07
54556;BME280;57291;37.520;15.106;2022-08-19T01:58:02;100608.88;;;27.34;80.86
54556;BME280;57291;37.520;15.106;2022-08-19T02:00:32;100611.31;;;27.29;81.58
54556;BME280;57291;37.520;15.106;2022-08-19T02:02:59;100623.72;;;27.21;82.06
54556;BME280;57291;37.520;15.106;2022-08-19T02:05:28;100628.97;;;27.15;82.31
54556;BME280;57291;37.520;15.106;2022-08-19T02:07:56;100626.19;;;27.11;82.23
54556;BME280;57291;37.520;15.106;2022-08-19T02:10:24;100620.22;;;27.09;82.09
54556;BME280;57291;37.520;15.106;2022-08-19T02:12:52;100620.22;;;27.13;82.38
54556;BME280;57291;37.520;15.106;2022-08-19T02:15:19;100614.66;;;27.13;81.97
54556;BME280;57291;37.520;15.106;2022-08-19T02:17:47;100624.19;;;27.12;83.43
54556;BME280;57291;37.520;15.106;2022-08-19T02:20:15;100617.00;;;27.11;84.47
54556;BME280;57291;37.520;15.106;2022-08-19T02:22:43;100613.84;;;27.09;85.28
54556;BME280;57291;37.520;15.106;2022-08-19T02:25:13;100621.84;;;27.07;86.34
54556;BME280;57291;37.520;15.106;2022-08-19T02:27:42;100629.06;;;27.01;86.69
54556;BME280;57291;37.520;15.106;2022-08-19T02:30:13;100633.88;;;26.97;86.77
54556;BME280;57291;37.520;15.106;2022-08-19T02:32:40;100633.06;;;26.96;87.19
54556;BME280;57291;37.520;15.106;2022-08-19T02:35:14;100635.09;;;26.96;87.83
54556;BME280;57291;37.520;15.106;2022-08-19T02:37:42;100636.25;;;26.95;87.84
54556;BME280;57291;37.520;15.106;2022-08-19T02:40:30;100633.91;;;26.93;88.23
54556;BME280;57291;37.520;15.106;2022-08-19T02:43:05;100646.66;;;26.90;88.33
54556;BME280;57291;37.520;15.106;2022-08-19T02:45:36;100643.50;;;26.88;88.68
54556;BME280;57291;37.520;15.106;2022-08-19T02:48:07;100637.13;;;26.84;88.71
54556;BME280;57291;37.520;15.106;2022-08-19T02:50:49;100637.94;;;26.81;88.58
54556;BME280;57291;37.520;15.106;2022-08-19T02:53:24;100640.38;;;26.79;88.70
54556;BME280;57291;37.520;15.106;2022-08-19T02:55:52;100640.41;;;26.76;88.70
54556;BME280;57291;37.520;15.106;2022-08-19T02:58:20;100638.00;;;26.74;88.80
54556;BME280;57291;37.520;15.106;2022-08-19T03:00:50;100648.38;;;26.70;89.32
54556;BME280;57291;37.520;15.106;2022-08-19T03:03:19;100649.59;;;26.69;89.15
54556;BME280;57291;37.520;15.106;2022-08-19T03:05:47;100646.41;;;26.67;89.48
54556;BME280;57291;37.520;15.106;2022-08-19T03:08:24;100656.75;;;26.70;90.84
54556;BME280;57291;37.520;15.106;2022-08-19T03:10:52;100652.38;;;26.69;91.00
54556;BME280;57291;37.520;15.106;2022-08-19T03:13:20;100656.34;;;26.68;92.04
54556;BME280;57291;37.520;15.106;2022-08-19T03:15:49;100648.44;;;26.63;91.92
54556;BME280;57291;37.520;15.106;2022-08-19T03:18:17;100646.81;;;26.62;92.08
54556;BME280;57291;37.520;15.106;2022-08-19T03:20:47;100652.41;;;26.58;91.85
54556;BME280;57291;37.520;15.106;2022-08-19T03:23:16;100652.44;;;26.55;92.05
54556;BME280;57291;37.520;15.106;2022-08-19T03:25:46;100656.03;;;26.52;91.35
54556;BME280;57291;37.520;15.106;2022-08-19T03:28:32;100660.44;;;26.49;90.09
54556;BME280;57291;37.520;15.106;2022-08-19T03:31:04;100669.19;;;26.48;87.02
54556;BME280;57291;37.520;15.106;2022-08-19T03:33:52;100666.03;;;26.46;84.67
54556;BME280;57291;37.520;15.106;2022-08-19T03:36:24;100667.63;;;26.43;82.97
54556;BME280;57291;37.520;15.106;2022-08-19T03:38:57;100668.41;;;26.43;80.21
54556;BME280;57291;37.520;15.106;2022-08-19T03:41:31;100675.56;;;26.48;79.42
54556;BME280;57291;37.520;15.106;2022-08-19T03:44:11;100662.03;;;26.50;79.60
54556;BME280;57291;37.520;15.106;2022-08-19T03:46:48;100664.41;;;26.48;79.51
54556;BME280;57291;37.520;15.106;2022-08-19T03:49:17;100659.63;;;26.45;80.20
54556;BME280;57291;37.520;15.106;2022-08-19T03:51:46;100663.63;;;26.40;80.17
54556;BME280;57291;37.520;15.106;2022-08-19T03:54:16;100663.63;;;26.40;78.97
54556;BME280;57291;37.520;15.106;2022-08-19T03:56:45;100662.84;;;26.40;78.52
54556;BME280;57291;37.520;15.106;2022-08-19T03:59:20;100668.44;;;26.36;78.97
54556;BME280;57291;37.520;15.106;2022-08-19T04:01:48;100668.06;;;26.27;79.66
54556;BME280;57291;37.520;15.106;2022-08-19T04:04:15;100657.72;;;26.28;80.40
54556;BME280;57291;37.520;15.106;2022-08-19T04:06:46;100666.91;;;26.21;80.59
54556;BME280;57291;37.520;15.106;2022-08-19T04:09:14;100674.47;;;26.17;80.70
54556;BME280;57291;37.520;15.106;2022-08-19T04:11:51;100677.25;;;26.20;82.01
54556;BME280;57291;37.520;15.106;2022-08-19T04:14:29;100670.88;;;26.24;82.03
54556;BME280;57291;37.520;15.106;2022-08-19T04:17:01;100669.28;;;26.19;81.63
54556;BME280;57291;37.520;15.106;2022-08-19T04:19:33;100668.53;;;26.11;82.09
54556;BME280;57291;37.520;15.106;2022-08-19T04:22:01;100687.63;;;26.06;82.73
54556;BME280;57291;37.520;15.106;2022-08-19T04:24:29;100692.03;;;25.92;83.39
54556;BME280;57291;37.520;15.106;2022-08-19T04:26:59;100694.84;;;25.85;84.01
54556;BME280;57291;37.520;15.106;2022-08-19T04:29:27;100694.84;;;25.85;84.66
54556;BME280;57291;37.520;15.106;2022-08-19T04:31:56;100698.81;;;25.84;84.68
54556;BME280;57291;37.520;15.106;2022-08-19T04:34:26;100700.38;;;25.92;85.16
54556;BME280;57291;37.520;15.106;2022-08-19T04:36:56;100711.53;;;26.03;84.88
54556;BME280;57291;37.520;15.106;2022-08-19T04:39:28;100709.09;;;26.09;84.40
54556;BME280;57291;37.520;15.106;2022-08-19T04:42:15;100717.03;;;26.21;84.07
54556;BME280;57291;37.520;15.106;2022-08-19T04:45:01;100721.78;;;26.28;84.33
54556;BME280;57291;37.520;15.106;2022-08-19T04:47:31;100723.38;;;26.29;84.38
54556;BME280;57291;37.520;15.106;2022-08-19T04:50:19;100722.59;;;26.28;83.80
54556;BME280;57291;37.520;15.106;2022-08-19T04:52:47;100724.19;;;26.33;83.85
54556;BME280;57291;37.520;15.106;2022-08-19T04:55:16;100720.94;;;26.41;83.44
54556;BME280;57291;37.520;15.106;2022-08-19T04:57:44;100726.91;;;26.51;82.54
54556;BME280;57291;37.520;15.106;2022-08-19T05:00:12;100722.06;;;26.62;81.88
54556;BME280;57291;37.520;15.106;2022-08-19T05:02:39;100724.00;;;26.79;82.25
54556;BME280;57291;37.520;15.106;2022-08-19T05:05:08;100730.25;;;26.98;82.11
54556;BME280;57291;37.520;15.106;2022-08-19T05:07:35;100727.41;;;27.16;81.25
54556;BME280;57291;37.520;15.106;2022-08-19T05:10:04;100725.22;;;27.38;78.64
54556;BME280;57291;37.520;15.106;2022-08-19T05:12:32;100722.72;;;27.57;78.49
54556;BME280;57291;37.520;15.106;2022-08-19T05:14:59;100711.31;;;27.82;78.29
54556;BME280;57291;37.520;15.106;2022-08-19T05:17:27;100715.72;;;28.21;77.34
54556;BME280;57291;37.520;15.106;2022-08-19T05:20:03;100714.13;;;28.55;74.55
54556;BME280;57291;37.520;15.106;2022-08-19T05:22:49;100707.56;;;28.99;72.32
54556;BME280;57291;37.520;15.106;2022-08-19T05:25:18;100702.50;;;29.17;72.08
54556;BME280;57291;37.520;15.106;2022-08-19T05:27:47;100706.66;;;29.33;72.08
54556;BME280;57291;37.520;15.106;2022-08-19T05:30:15;100702.94;;;29.39;72.15
54556;BME280;57291;37.520;15.106;2022-08-19T05:32:43;100706.09;;;29.41;72.23
54556;BME280;57291;37.520;15.106;2022-08-19T05:35:11;100708.03;;;29.44;72.37
54556;BME280;57291;37.520;15.106;2022-08-19T05:37:39;100708.34;;;29.50;70.71
54556;BME280;57291;37.520;15.106;2022-08-19T05:40:08;100716.19;;;29.62;70.61
54556;BME280;57291;37.520;15.106;2022-08-19T05:42:37;100719.75;;;29.86;69.66
54556;BME280;57291;37.520;15.106;2022-08-19T05:45:05;100723.22;;;29.94;69.22
54556;BME280;57291;37.520;15.106;2022-08-19T05:47:33;100719.84;;;30.03;69.25
54556;BME280;57291;37.520;15.106;2022-08-19T05:50:08;100727.06;;;30.24;68.69
54556;BME280;57291;37.520;15.106;2022-08-19T05:52:36;100740.16;;;30.50;67.69
54556;BME280;57291;37.520;15.106;2022-08-19T05:55:09;100730.53;;;30.51;67.28
54556;BME280;57291;37.520;15.106;2022-08-19T05:57:37;100729.00;;;30.67;65.94
54556;BME280;57291;37.520;15.106;2022-08-19T06:00:05;100727.50;;;30.62;66.20
54556;BME280;57291;37.520;15.106;2022-08-19T06:02:38;100732.06;;;30.92;63.77
54556;BME280;57291;37.520;15.106;2022-08-19T06:05:06;100726.16;;;31.23;62.31
54556;BME280;57291;37.520;15.106;2022-08-19T06:07:36;100727.59;;;31.47;60.31
54556;BME280;57291;37.520;15.106;2022-08-19T06:10:07;100718.66;;;31.52;60.73
54556;BME280;57291;37.520;15.106;2022-08-19T06:12:35;100728.34;;;31.81;58.90
54556;BME280;57291;37.520;15.106;2022-08-19T06:15:07;100743.25;;;32.10;59.29
54556;BME280;57291;37.520;15.106;2022-08-19T06:17:34;100741.94;;;32.57;58.30
54556;BME280;57291;37.520;15.106;2022-08-19T06:20:07;100738.53;;;32.91;56.59
54556;BME280;57291;37.520;15.106;2022-08-19T06:22:42;100738.41;;;32.95;56.03
54556;BME280;57291;37.520;15.106;2022-08-19T06:25:11;100734.91;;;32.90;56.31
54556;BME280;57291;37.520;15.106;2022-08-19T06:27:38;100736.31;;;33.24;56.39
54556;BME280;57291;37.520;15.106;2022-08-19T06:30:26;100736.94;;;33.41;55.25
54556;BME280;57291;37.520;15.106;2022-08-19T06:32:54;100738.66;;;33.51;54.59
54556;BME280;57291;37.520;15.106;2022-08-19T06:35:22;100740.28;;;33.74;54.04
54556;BME280;57291;37.520;15.106;2022-08-19T06:37:49;100735.47;;;33.97;54.64
54556;BME280;57291;37.520;15.106;2022-08-19T06:40:17;100747.31;;;33.57;55.01
54556;BME280;57291;37.520;15.106;2022-08-19T06:42:44;100749.69;;;33.58;52.90
54556;BME280;57291;37.520;15.106;2022-08-19T06:45:24;100749.31;;;33.69;53.01
54556;BME280;57291;37.520;15.106;2022-08-19T06:48:01;100751.50;;;33.52;53.79
54556;BME280;57291;37.520;15.106;2022-08-19T06:50:29;100758.50;;;33.82;52.95
54556;BME280;57291;37.520;15.106;2022-08-19T06:52:56;100754.72;;;34.11;52.17
54556;BME280;57291;37.520;15.106;2022-08-19T06:55:30;100759.19;;;34.21;51.99
54556;BME280;57291;37.520;15.106;2022-08-19T06:58:02;100756.44;;;34.30;51.97
54556;BME280;57291;37.520;15.106;2022-08-19T07:00:30;100755.31;;;34.28;51.79
54556;BME280;57291;37.520;15.106;2022-08-19T07:02:58;100756.78;;;34.33;52.00
54556;BME280;57291;37.520;15.106;2022-08-19T07:05:43;100750.53;;;34.38;51.29
54556;BME280;57291;37.520;15.106;2022-08-19T07:08:12;100748.13;;;34.49;50.92
54556;BME280;57291;37.520;15.106;2022-08-19T07:10:43;100744.41;;;34.52;50.89
54556;BME280;57291;37.520;15.106;2022-08-19T07:13:10;100747.00;;;34.68;50.72
54556;BME280;57291;37.520;15.106;2022-08-19T07:15:38;100732.50;;;34.13;52.47
54556;BME280;57291;37.520;15.106;2022-08-19T07:18:05;100745.69;;;34.16;52.72
54556;BME280;57291;37.520;15.106;2022-08-19T07:20:37;100737.09;;;34.42;53.30
54556;BME280;57291;37.520;15.106;2022-08-19T07:23:08;100745.41;;;34.67;52.68
54556;BME280;57291;37.520;15.106;2022-08-19T07:25:37;100745.97;;;34.75;53.56
54556;BME280;57291;37.520;15.106;2022-08-19T07:28:06;100746.28;;;34.55;53.80
54556;BME280;57291;37.520;15.106;2022-08-19T07:31:00;100740.25;;;34.44;53.62
54556;BME280;57291;37.520;15.106;2022-08-19T07:33:31;100740.69;;;34.64;53.42
54556;BME280;57291;37.520;15.106;2022-08-19T07:35:59;100729.78;;;35.07;51.52
54556;BME280;57291;37.520;15.106;2022-08-19T07:38:27;100738.06;;;35.01;51.78
54556;BME280;57291;37.520;15.106;2022-08-19T07:40:54;100735.44;;;34.75;52.69
54556;BME280;57291;37.520;15.106;2022-08-19T07:43:21;100738.44;;;35.12;51.25
54556;BME280;57291;37.520;15.106;2022-08-19T07:46:01;100748.72;;;35.28;50.32
54556;BME280;57291;37.520;15.106;2022-08-19T07:48:28;100745.09;;;35.37;50.32
54556;BME280;57291;37.520;15.106;2022-08-19T07:51:00;100744.72;;;35.57;49.71
54556;BME280;57291;37.520;15.106;2022-08-19T07:53:31;100743.81;;;35.19;50.66
54556;BME280;57291;37.520;15.106;2022-08-19T07:56:06;100748.75;;;35.46;48.09
54556;BME280;57291;37.520;15.106;2022-08-19T07:58:36;100758.66;;;35.51;48.82
54556;BME280;57291;37.520;15.106;2022-08-19T08:01:06;100757.88;;;35.10;49.86
54556;BME280;57291;37.520;15.106;2022-08-19T08:03:35;100756.06;;;35.84;48.62
54556;BME280;57291;37.520;15.106;2022-08-19T08:06:21;100764.69;;;35.99;49.58
54556;BME280;57291;37.520;15.106;2022-08-19T08:09:09;100767.53;;;35.81;49.62
54556;BME280;57291;37.520;15.106;2022-08-19T08:11:45;100768.75;;;35.61;50.60
54556;BME280;57291;37.520;15.106;2022-08-19T08:14:30;100776.59;;;35.66;49.55
54556;BME280;57291;37.520;15.106;2022-08-19T08:17:04;100774.13;;;35.37;50.03
54556;BME280;57291;37.520;15.106;2022-08-19T08:19:37;100788.91;;;35.32;50.49
54556;BME280;57291;37.520;15.106;2022-08-19T08:22:04;100790.16;;;35.99;48.63
54556;BME280;57291;37.520;15.106;2022-08-19T08:24:34;100798.19;;;36.47;48.00
54556;BME280;57291;37.520;15.106;2022-08-19T08:27:02;100785.41;;;36.79;46.21
54556;BME280;57291;37.520;15.106;2022-08-19T08:29:37;100796.44;;;36.86;46.21
54556;BME280;57291;37.520;15.106;2022-08-19T08:32:04;100800.47;;;36.94;46.73
54556;BME280;57291;37.520;15.106;2022-08-19T08:34:41;100801.34;;;36.21;48.17
54556;BME280;57291;37.520;15.106;2022-08-19T08:37:08;100799.94;;;35.08;52.12
54556;BME280;57291;37.520;15.106;2022-08-19T08:39:35;100795.03;;;35.40;52.10
54556;BME280;57291;37.520;15.106;2022-08-19T08:42:21;100799.72;;;35.74;51.80
54556;BME280;57291;37.520;15.106;2022-08-19T08:44:59;100797.72;;;34.81;54.05
54556;BME280;57291;37.520;15.106;2022-08-19T08:47:30;100787.56;;;34.40;55.09
54556;BME280;57291;37.520;15.106;2022-08-19T08:50:12;100780.78;;;34.37;54.70
54556;BME280;57291;37.520;15.106;2022-08-19T08:52:45;100776.81;;;33.78;56.21
54556;BME280;57291;37.520;15.106;2022-08-19T08:55:19;100772.56;;;33.60;56.72
54556;BME280;57291;37.520;15.106;2022-08-19T09:00:20;100765.47;;;33.18;56.97
54556;BME280;57291;37.520;15.106;2022-08-19T09:02:48;100776.22;;;32.93;58.96
54556;BME280;57291;37.520;15.106;2022-08-19T09:05:17;100760.28;;;32.49;60.02
54556;BME280;57291;37.520;15.106;2022-08-19T09:10:46;100760.31;;;32.61;59.45
54556;BME280;57291;37.520;15.106;2022-08-19T09:13:40;100759.28;;;32.55;60.36
54556;BME280;57291;37.520;15.106;2022-08-19T09:16:14;100767.16;;;33.02;59.72
54556;BME280;57291;37.520;15.106;2022-08-19T09:18:46;100765.25;;;33.37;59.01
54556;BME280;57291;37.520;15.106;2022-08-19T09:21:15;100765.13;;;33.54;58.71
54556;BME280;57291;37.520;15.106;2022-08-19T09:23:43;100758.88;;;33.72;58.12
54556;BME280;57291;37.520;15.106;2022-08-19T09:26:13;100752.06;;;33.60;58.11
54556;BME280;57291;37.520;15.106;2022-08-19T09:28:44;100735.38;;;33.40;59.81
54556;BME280;57291;37.520;15.106;2022-08-19T09:31:18;100729.66;;;33.18;60.66
54556;BME280;57291;37.520;15.106;2022-08-19T09:33:46;100724.56;;;32.75;61.49
54556;BME280;57291;37.520;15.106;2022-08-19T09:36:19;100718.78;;;32.53;63.52
54556;BME280;57291;37.520;15.106;2022-08-19T09:39:01;100718.63;;;32.14;65.46
54556;BME280;57291;37.520;15.106;2022-08-19T09:41:28;100724.56;;;32.04;66.43
54556;BME280;57291;37.520;15.106;2022-08-19T09:43:57;100727.81;;;32.02;66.06
54556;BME280;57291;37.520;15.106;2022-08-19T09:46:27;100724.28;;;31.98;66.80
54556;BME280;57291;37.520;15.106;2022-08-19T09:48:58;100722.38;;;31.78;67.13
54556;BME280;57291;37.520;15.106;2022-08-19T09:51:32;100731.63;;;31.63;67.86
54556;BME280;57291;37.520;15.106;2022-08-19T09:54:04;100728.63;;;31.70;67.81
54556;BME280;57291;37.520;15.106;2022-08-19T09:56:32;100728.28;;;31.68;68.66
54556;BME280;57291;37.520;15.106;2022-08-19T09:59:01;100729.16;;;31.65;68.39
54556;BME280;57291;37.520;15.106;2022-08-19T10:01:30;100733.91;;;31.68;68.05
54556;BME280;57291;37.520;15.106;2022-08-19T10:03:59;100740.38;;;31.81;68.66
54556;BME280;57291;37.520;15.106;2022-08-19T10:06:28;100733.00;;;31.87;68.00
54556;BME280;57291;37.520;15.106;2022-08-19T10:09:13;100726.97;;;31.89;67.34
54556;BME280;57291;37.520;15.106;2022-08-19T10:11:43;100716.78;;;31.62;68.78
54556;BME280;57291;37.520;15.106;2022-08-19T10:14:20;100730.28;;;31.18;70.39
54556;BME280;57291;37.520;15.106;2022-08-19T10:16:50;100732.75;;;31.16;70.42
54556;BME280;57291;37.520;15.106;2022-08-19T10:19:19;100742.59;;;31.41;68.74
54556;BME280;57291;37.520;15.106;2022-08-19T10:21:53;100738.78;;;31.31;68.99
54556;BME280;57291;37.520;15.106;2022-08-19T10:24:26;100740.31;;;31.36;69.79
54556;BME280;57291;37.520;15.106;2022-08-19T10:26:55;100729.75;;;31.23;69.27
54556;BME280;57291;37.520;15.106;2022-08-19T10:29:26;100736.19;;;31.57;68.16
54556;BME280;57291;37.520;15.106;2022-08-19T10:32:03;100733.88;;;31.84;67.43
54556;BME280;57291;37.520;15.106;2022-08-19T10:34:39;100736.78;;;31.81;67.00
54556;BME280;57291;37.520;15.106;2022-08-19T10:37:16;100734.66;;;31.85;66.95
54556;BME280;57291;37.520;15.106;2022-08-19T10:39:55;100728.19;;;31.88;67.05
54556;BME280;57291;37.520;15.106;2022-08-19T10:42:22;100721.38;;;32.02;65.92
54556;BME280;57291;37.520;15.106;2022-08-19T10:44:49;100726.63;;;32.16;64.73
54556;BME280;57291;37.520;15.106;2022-08-19T10:47:18;100721.47;;;32.27;64.56
54556;BME280;57291;37.520;15.106;2022-08-19T10:49:53;100730.13;;;32.20;64.87
54556;BME280;57291;37.520;15.106;2022-08-19T10:52:45;100707.63;;;31.91;65.32
54556;BME280;57291;37.520;15.106;2022-08-19T10:55:24;100712.84;;;31.60;68.18
54556;BME280;57291;37.520;15.106;2022-08-19T10:58:15;100707.72;;;31.71;67.74
54556;BME280;57291;37.520;15.106;2022-08-19T11:00:43;100705.97;;;31.93;66.70
54556;BME280;57291;37.520;15.106;2022-08-19T11:03:18;100705.44;;;31.98;66.41
54556;BME280;57291;37.520;15.106;2022-08-19T11:05:45;100711.75;;;31.86;67.64
54556;BME280;57291;37.520;15.106;2022-08-19T11:08:12;100701.41;;;31.83;67.41
54556;BME280;57291;37.520;15.106;2022-08-19T11:10:50;100715.19;;;31.77;68.39
54556;BME280;57291;37.520;15.106;2022-08-19T11:13:17;100719.31;;;31.89;68.36
54556;BME280;57291;37.520;15.106;2022-08-19T11:15:45;100721.91;;;32.13;67.66
54556;BME280;57291;37.520;15.106;2022-08-19T11:18:14;100717.22;;;32.22;67.03
54556;BME280;57291;37.520;15.106;2022-08-19T11:20:41;100712.50;;;32.32;67.57
54556;BME280;57291;37.520;15.106;2022-08-19T11:23:08;100720.81;;;32.52;66.98
54556;BME280;57291;37.520;15.106;2022-08-19T11:25:38;100713.38;;;32.58;65.90
54556;BME280;57291;37.520;15.106;2022-08-19T11:28:05;100722.94;;;32.48;66.47
54556;BME280;57291;37.520;15.106;2022-08-19T11:30:32;100713.44;;;32.42;66.17
54556;BME280;57291;37.520;15.106;2022-08-19T11:33:00;100716.19;;;32.45;66.27
54556;BME280;57291;37.520;15.106;2022-08-19T11:35:29;100706.13;;;32.03;67.36
54556;BME280;57291;37.520;15.106;2022-08-19T11:37:58;100703.88;;;31.65;68.42
54556;BME280;57291;37.520;15.106;2022-08-19T11:40:27;100689.09;;;31.77;68.32
54556;BME280;57291;37.520;15.106;2022-08-19T11:42:54;100687.75;;;31.98;67.38
54556;BME280;57291;37.520;15.106;2022-08-19T11:45:26;100692.66;;;32.10;66.78
54556;BME280;57291;37.520;15.106;2022-08-19T11:47:54;100696.13;;;32.14;65.57
54556;BME280;57291;37.520;15.106;2022-08-19T11:50:22;100696.13;;;32.14;65.63
54556;BME280;57291;37.520;15.106;2022-08-19T11:52:54;100702.00;;;31.91;66.14
54556;BME280;57291;37.520;15.106;2022-08-19T11:55:24;100687.44;;;31.80;67.54
54556;BME280;57291;37.520;15.106;2022-08-19T11:57:52;100693.69;;;31.71;68.16
54556;BME280;57291;37.520;15.106;2022-08-19T12:00:20;100690.94;;;31.84;68.05
54556;BME280;57291;37.520;15.106;2022-08-19T12:02:48;100691.81;;;31.81;67.23
54556;BME280;57291;37.520;15.106;2022-08-19T12:05:15;100697.88;;;31.95;67.40
54556;BME280;57291;37.520;15.106;2022-08-19T12:07:43;100697.00;;;31.98;66.80
54556;BME280;57291;37.520;15.106;2022-08-19T12:10:10;100688.44;;;31.73;68.12
54556;BME280;57291;37.520;15.106;2022-08-19T12:12:37;100688.13;;;31.84;67.57
54556;BME280;57291;37.520;15.106;2022-08-19T12:15:11;100687.75;;;31.69;67.79
54556;BME280;57291;37.520;15.106;2022-08-19T12:17:40;100685.34;;;31.67;67.96
54556;BME280;57291;37.520;15.106;2022-08-19T12:20:10;100679.94;;;31.60;68.74
54556;BME280;57291;37.520;15.106;2022-08-19T12:22:37;100690.19;;;31.67;69.18
54556;BME280;57291;37.520;15.106;2022-08-19T12:25:05;100686.69;;;31.63;68.86
54556;BME280;57291;37.520;15.106;2022-08-19T12:27:33;100686.03;;;31.71;69.29
54556;BME280;57291;37.520;15.106;2022-08-19T12:30:10;100675.97;;;31.58;70.06
54556;BME280;57291;37.520;15.106;2022-08-19T12:32:39;100675.47;;;31.63;70.11
54556;BME280;57291;37.520;15.106;2022-08-19T12:35:07;100686.94;;;31.52;69.98
54556;BME280;57291;37.520;15.106;2022-08-19T12:37:36;100685.19;;;31.58;70.27
54556;BME280;57291;37.520;15.106;2022-08-19T12:40:04;100674.41;;;31.57;70.06
54556;BME280;57291;37.520;15.106;2022-08-19T12:42:31;100678.38;;;31.59;70.62
54556;BME280;57291;37.520;15.106;2022-08-19T12:44:58;100675.47;;;31.46;70.19
54556;BME280;57291;37.520;15.106;2022-08-19T12:47:26;100664.25;;;31.46;70.24
54556;BME280;57291;37.520;15.106;2022-08-19T12:49:53;100668.88;;;31.53;70.68
54556;BME280;57291;37.520;15.106;2022-08-19T12:52:23;100672.44;;;31.70;69.49
54556;BME280;57291;37.520;15.106;2022-08-19T12:54:53;100678.06;;;31.70;69.68
54556;BME280;57291;37.520;15.106;2022-08-19T12:57:23;100669.34;;;31.81;68.62
54556;BME280;57291;37.520;15.106;2022-08-19T13:00:11;100671.97;;;31.88;69.08
54556;BME280;57291;37.520;15.106;2022-08-19T13:02:42;100669.69;;;31.83;69.41
54556;BME280;57291;37.520;15.106;2022-08-19T13:05:13;100663.81;;;31.77;70.05
54556;BME280;57291;37.520;15.106;2022-08-19T13:07:42;100660.44;;;31.69;70.08
54556;BME280;57291;37.520;15.106;2022-08-19T13:10:14;100649.38;;;31.62;71.05
54556;BME280;57291;37.520;15.106;2022-08-19T13:12:44;100646.13;;;31.64;71.22